Cuchillo, New Mexico
Current Conditions -  °F | °C
As of 2:53 PM on Saturday 20 Dec 2014 (Local Time) from KTCS Reporting Station
Clear Clear  
Wind Chill: 51°   Ceiling: Unl
Heat Index: 51°   Visibility: 10mi
Dew Point: 18°   Wind: 5mph
Humidity: 27%   Direction: NA
Pressure: 30.07"   Gusts: NA
Location:  33.1866°N, 106.845°W
Report Text: KTCS 202153Z AUTO VRB04KT 10SM CLR 11/M08 A3007 RMK AO2 SLP162 T01061078 TSNO
Loading
Personal Weather Stations






























Interactive Weather Map New forecast layout! Learn more

10-Day Weather Forecast

Advertisements
Track Severe Weather on mobile